Time;durP1;ratioP1;P1;durP2;ratioP2;P2;SDS_P1;SDS_P2;PMS_P1;PMS_P2;Temp;Humidity;BMP_temperature;BMP_pressure;BME280_temperature;BME280_humidity;BME280_pressure;Samples;Min_cycle;Max_cycle;Signal;HPM_P1;HPM_P2
2022/03/01 00:02:20;;;;;;;25.90;13.17;;;1.80;99.90;;;;;;4972596;28;20192;-52
2022/03/01 00:04:45;;;;;;;28.87;13.60;;;1.80;99.90;;;;;;4973719;28;20204;-51
2022/03/01 00:07:11;;;;;;;33.87;14.40;;;1.80;99.90;;;;;;4975659;28;20196;-51
2022/03/01 00:09:36;;;;;;;44.00;19.57;;;1.80;99.90;;;;;;4970391;28;20280;-51
2022/03/01 00:12:03;;;;;;;31.03;13.37;;;1.80;99.90;;;;;;4968045;28;20237;-51
2022/03/01 00:14:28;;;;;;;32.70;13.50;;;1.80;99.90;;;;;;4978409;28;20185;-51
2022/03/01 00:16:54;;;;;;;28.20;13.03;;;1.80;99.90;;;;;;4976521;28;21603;-51
2022/03/01 00:19:20;;;;;;;28.30;13.63;;;1.80;99.90;;;;;;4976329;28;20200;-47
2022/03/01 00:21:46;;;;;;;25.23;11.83;;;1.90;99.90;;;;;;4976563;28;20244;-51
2022/03/01 00:24:11;;;;;;;36.83;13.33;;;1.80;99.90;;;;;;4977125;28;20452;-48
2022/03/01 00:26:37;;;;;;;26.87;11.90;;;1.70;99.90;;;;;;4973299;28;20440;-52
2022/03/01 00:29:03;;;;;;;30.53;12.93;;;1.70;99.90;;;;;;4973484;28;20583;-51
2022/03/01 00:31:29;;;;;;;28.40;13.30;;;1.70;99.90;;;;;;4956395;28;20303;-48
2022/03/01 00:33:55;;;;;;;27.10;11.97;;;1.70;99.90;;;;;;4981133;28;20575;-48
2022/03/01 00:36:20;;;;;;;31.93;13.90;;;1.60;99.90;;;;;;4972874;28;20600;-51
2022/03/01 00:38:46;;;;;;;31.53;12.60;;;1.70;99.90;;;;;;4952859;28;20216;-51
2022/03/01 00:41:12;;;;;;;28.50;12.60;;;1.70;99.90;;;;;;4970967;28;20200;-51
2022/03/01 00:43:37;;;;;;;25.87;12.50;;;1.60;99.90;;;;;;4966860;28;20203;-51
2022/03/01 00:46:03;;;;;;;26.50;12.90;;;1.70;99.90;;;;;;4971760;28;20201;-51
2022/03/01 00:48:28;;;;;;;24.53;12.13;;;1.70;99.90;;;;;;4972381;28;20192;-51
2022/03/01 00:50:54;;;;;;;30.73;12.57;;;1.60;99.90;;;;;;4980294;28;20570;-51
2022/03/01 00:53:20;;;;;;;25.53;11.93;;;1.70;99.90;;;;;;4973484;28;20208;-51
2022/03/01 00:55:45;;;;;;;26.53;11.53;;;1.70;99.90;;;;;;4979468;28;20268;-51
2022/03/01 00:58:11;;;;;;;22.93;11.23;;;1.70;99.90;;;;;;4971505;28;20292;-51
2022/03/01 01:00:36;;;;;;;25.87;12.17;;;1.60;99.90;;;;;;4972326;28;20189;-52
2022/03/01 01:03:02;;;;;;;26.30;11.37;;;1.70;99.90;;;;;;4971728;28;20248;-51
2022/03/01 01:05:28;;;;;;;26.23;12.10;;;1.70;99.90;;;;;;4971936;28;20204;-51
2022/03/01 01:07:54;;;;;;;24.33;11.87;;;1.60;99.90;;;;;;4972298;28;20336;-52
2022/03/01 01:10:20;;;;;;;24.80;11.17;;;1.60;99.90;;;;;;4972478;28;20976;-51
2022/03/01 01:12:46;;;;;;;25.43;11.13;;;1.50;99.90;;;;;;4972078;28;20516;-51
2022/03/01 01:15:14;;;;;;;29.07;11.97;;;1.60;99.90;;;;;;4969754;28;20930;-51
2022/03/01 01:17:39;;;;;;;24.73;11.50;;;1.60;99.90;;;;;;4968063;28;21044;-52
2022/03/01 01:20:06;;;;;;;26.00;11.60;;;1.60;99.90;;;;;;4970768;28;20428;-51
2022/03/01 01:22:41;;;;;;;23.53;11.33;;;1.60;99.90;;;;;;4971869;28;20205;-51
2022/03/01 01:25:17;;;;;;;23.73;12.00;;;1.60;99.90;;;;;;4971712;28;20432;-51
2022/03/01 01:27:45;;;;;;;23.80;10.70;;;1.50;99.90;;;;;;4971549;28;20912;-51
2022/03/01 01:30:14;;;;;;;21.40;10.60;;;1.50;99.90;;;;;;4968210;28;20433;-51
2022/03/01 01:32:41;;;;;;;24.47;11.17;;;1.60;99.90;;;;;;4971023;28;20464;-52
2022/03/01 01:35:08;;;;;;;23.33;10.57;;;1.40;99.90;;;;;;4971569;28;20505;-51
2022/03/01 01:37:34;;;;;;;23.70;10.97;;;1.40;99.90;;;;;;4969665;28;20468;-50
2022/03/01 01:40:00;;;;;;;19.87;9.67;;;1.40;99.90;;;;;;4971635;28;20427;-51
2022/03/01 01:42:26;;;;;;;25.63;11.80;;;1.40;99.90;;;;;;4971326;28;20809;-51
2022/03/01 01:44:52;;;;;;;23.00;11.60;;;1.30;99.90;;;;;;4970668;28;20440;-52
2022/03/01 01:47:17;;;;;;;22.10;10.80;;;1.40;99.90;;;;;;4970370;28;20204;-51
2022/03/01 01:49:43;;;;;;;30.67;11.83;;;1.40;99.90;;;;;;4971140;28;20201;-51
2022/03/01 01:52:09;;;;;;;25.80;11.90;;;1.40;99.90;;;;;;4971065;28;20205;-51
2022/03/01 01:54:34;;;;;;;26.60;11.33;;;1.40;99.90;;;;;;4970954;28;20185;-51
2022/03/01 01:57:00;;;;;;;22.23;10.70;;;1.40;99.90;;;;;;4971447;28;20193;-48
2022/03/01 01:59:26;;;;;;;21.27;10.03;;;1.40;99.90;;;;;;4971077;28;20181;-51
2022/03/01 02:01:52;;;;;;;28.00;12.00;;;1.40;99.90;;;;;;4970647;28;20822;-51
2022/03/01 02:04:17;;;;;;;25.40;11.07;;;1.40;99.90;;;;;;4969617;28;20193;-52
2022/03/01 02:06:53;;;;;;;25.37;10.50;;;1.30;99.90;;;;;;4970756;28;20193;-51
2022/03/01 02:09:20;;;;;;;27.60;11.83;;;1.20;99.90;;;;;;4971420;28;20185;-51
2022/03/01 02:11:46;;;;;;;23.87;11.37;;;1.20;99.90;;;;;;4973845;28;20453;-50
2022/03/01 02:14:11;;;;;;;26.30;12.33;;;1.10;99.90;;;;;;4970173;28;20519;-51
2022/03/01 02:16:38;;;;;;;29.23;12.23;;;1.10;99.90;;;;;;4968969;28;20193;-51
2022/03/01 02:19:05;;;;;;;27.10;12.40;;;1.20;99.90;;;;;;4970355;28;20177;-51
2022/03/01 02:21:31;;;;;;;29.87;12.30;;;1.10;99.90;;;;;;4953602;28;20470;-51
2022/03/01 02:23:57;;;;;;;25.30;11.30;;;1.20;99.90;;;;;;4970071;28;20433;-51
2022/03/01 02:26:22;;;;;;;25.90;11.10;;;1.20;99.90;;;;;;4970052;28;20920;-51
2022/03/01 02:28:48;;;;;;;23.10;10.97;;;1.20;99.90;;;;;;4970440;28;20428;-48
2022/03/01 02:31:14;;;;;;;22.90;10.40;;;1.20;99.90;;;;;;4970812;28;20207;-50
2022/03/01 02:33:39;;;;;;;23.77;11.00;;;1.10;99.90;;;;;;4969579;28;20224;-51
2022/03/01 02:36:05;;;;;;;26.37;11.00;;;1.10;99.90;;;;;;4966434;28;20240;-51
2022/03/01 02:38:30;;;;;;;25.23;11.97;;;1.10;99.90;;;;;;4951719;29;20181;-51
2022/03/01 02:40:56;;;;;;;22.20;11.00;;;1.10;99.90;;;;;;4951563;29;20588;-52
2022/03/01 02:43:21;;;;;;;23.73;10.87;;;1.20;99.90;;;;;;4950891;28;20253;-53
2022/03/01 02:45:47;;;;;;;25.30;11.53;;;1.20;99.90;;;;;;4954143;28;20236;-51
2022/03/01 02:48:13;;;;;;;20.37;10.67;;;1.20;99.90;;;;;;4951161;28;20667;-52
2022/03/01 02:50:38;;;;;;;23.97;11.33;;;1.10;99.90;;;;;;4951505;29;20197;-51
2022/03/01 02:53:06;;;;;;;29.77;10.90;;;1.10;99.90;;;;;;4951532;29;20691;-52
2022/03/01 02:55:31;;;;;;;20.13;10.60;;;1.00;99.90;;;;;;4951625;29;20945;-52
2022/03/01 02:57:57;;;;;;;25.20;10.73;;;1.00;99.90;;;;;;4951844;29;20437;-52
2022/03/01 03:00:22;;;;;;;25.10;11.60;;;0.90;99.90;;;;;;4951645;29;20396;-51
2022/03/01 03:02:48;;;;;;;21.80;10.27;;;1.00;99.90;;;;;;4950803;29;20677;-51
2022/03/01 03:05:13;;;;;;;25.27;10.93;;;0.80;99.90;;;;;;4951540;29;20178;-50
2022/03/01 03:07:40;;;;;;;26.10;11.53;;;0.90;99.90;;;;;;4951165;29;20264;-49
2022/03/01 03:10:07;;;;;;;19.40;10.20;;;0.90;99.90;;;;;;4951535;29;20181;-51
2022/03/01 03:12:32;;;;;;;26.27;11.70;;;0.90;99.90;;;;;;4951393;29;20457;-51
2022/03/01 03:14:59;;;;;;;27.33;10.63;;;0.80;99.90;;;;;;4951845;28;20460;-55
2022/03/01 03:17:24;;;;;;;30.03;11.50;;;0.80;99.90;;;;;;4951982;29;20413;-51
2022/03/01 03:19:50;;;;;;;26.90;11.97;;;0.80;99.90;;;;;;4951704;29;20194;-51
2022/03/01 03:22:15;;;;;;;27.70;11.60;;;0.80;99.90;;;;;;4951653;29;20182;-52
2022/03/01 03:24:41;;;;;;;25.20;11.40;;;0.80;99.90;;;;;;4951274;29;20268;-52
2022/03/01 03:27:06;;;;;;;30.60;11.63;;;0.80;99.90;;;;;;4951536;29;20293;-51
2022/03/01 03:29:32;;;;;;;25.33;10.53;;;0.80;99.90;;;;;;4951218;29;20562;-51
2022/03/01 03:31:57;;;;;;;20.47;10.03;;;0.80;99.90;;;;;;4951322;29;20579;-51
2022/03/01 03:34:25;;;;;;;25.53;10.77;;;0.80;99.90;;;;;;4950993;29;20189;-52
2022/03/01 03:36:50;;;;;;;27.00;11.23;;;0.80;99.90;;;;;;4952871;28;20225;-51
2022/03/01 03:39:16;;;;;;;31.00;11.63;;;0.70;99.90;;;;;;4955612;28;20434;-51
2022/03/01 03:41:42;;;;;;;28.17;12.00;;;0.70;99.90;;;;;;4951347;29;20206;-48
2022/03/01 03:44:07;;;;;;;31.50;11.60;;;0.60;99.90;;;;;;4951308;29;20193;-52
2022/03/01 03:46:34;;;;;;;29.20;11.90;;;0.70;99.90;;;;;;4951168;29;20190;-51
2022/03/01 03:48:59;;;;;;;24.60;11.30;;;0.70;99.90;;;;;;4949747;29;20189;-51
2022/03/01 03:51:25;;;;;;;26.83;11.50;;;0.70;99.90;;;;;;4950732;29;20503;-51
2022/03/01 03:53:51;;;;;;;24.53;11.90;;;0.60;99.90;;;;;;4951268;29;20675;-52
2022/03/01 03:56:17;;;;;;;31.20;11.30;;;0.60;99.90;;;;;;4950794;29;20534;-52
2022/03/01 03:58:43;;;;;;;27.70;12.20;;;0.60;99.90;;;;;;4951055;29;20198;-53
2022/03/01 04:01:09;;;;;;;25.77;10.33;;;0.60;99.90;;;;;;4953031;28;20217;-52
2022/03/01 04:03:34;;;;;;;30.63;11.50;;;0.70;99.90;;;;;;4952289;28;20203;-51
2022/03/01 04:06:00;;;;;;;23.67;11.60;;;0.70;99.90;;;;;;4937543;29;20440;-51
2022/03/01 04:08:27;;;;;;;24.40;10.93;;;0.70;99.90;;;;;;4954606;29;20189;-51
2022/03/01 04:10:54;;;;;;;28.77;11.97;;;0.60;99.90;;;;;;4954407;29;20621;-51
2022/03/01 04:13:19;;;;;;;28.27;12.00;;;0.70;99.90;;;;;;4954622;29;20946;-51
2022/03/01 04:15:45;;;;;;;24.57;11.17;;;0.70;99.90;;;;;;4954408;29;20444;-52
2022/03/01 04:18:10;;;;;;;26.13;11.60;;;0.60;99.90;;;;;;4954941;29;20178;-51
2022/03/01 04:20:36;;;;;;;24.70;12.10;;;0.50;99.90;;;;;;4953842;29;20190;-51
2022/03/01 04:23:01;;;;;;;22.63;11.13;;;0.40;99.90;;;;;;4954480;29;20185;-51
2022/03/01 04:25:27;;;;;;;23.57;11.00;;;0.40;99.90;;;;;;4937060;29;20224;-51
2022/03/01 04:27:52;;;;;;;24.43;11.17;;;0.30;99.90;;;;;;4954345;29;20659;-51
2022/03/01 04:30:18;;;;;;;26.63;12.90;;;0.30;99.90;;;;;;4954850;29;20224;-51
2022/03/01 04:32:45;;;;;;;20.90;10.97;;;0.30;99.90;;;;;;4951742;29;20296;-51
2022/03/01 04:35:11;;;;;;;22.97;11.07;;;0.30;99.90;;;;;;4954164;29;20185;-51
2022/03/01 04:37:38;;;;;;;27.10;11.93;;;0.20;99.90;;;;;;4959374;28;20467;-50
2022/03/01 04:40:06;;;;;;;25.70;11.43;;;0.30;99.90;;;;;;4953914;29;20765;-51
2022/03/01 04:42:32;;;;;;;24.77;12.77;;;0.30;99.90;;;;;;4936282;29;20451;-48
2022/03/01 04:44:58;;;;;;;23.47;11.33;;;0.30;99.90;;;;;;4953578;29;20950;-51
2022/03/01 04:47:23;;;;;;;24.87;11.07;;;0.20;99.90;;;;;;4954037;29;20437;-51
2022/03/01 04:49:49;;;;;;;27.23;11.17;;;0.30;99.90;;;;;;4953640;29;20546;-51
2022/03/01 04:52:15;;;;;;;23.73;10.90;;;0.20;99.90;;;;;;4954258;29;20217;-52
2022/03/01 04:54:40;;;;;;;24.70;11.57;;;0.20;99.90;;;;;;4953909;29;20237;-51
2022/03/01 04:57:06;;;;;;;23.50;11.77;;;0.20;99.90;;;;;;4954295;29;20528;-51
2022/03/01 04:59:32;;;;;;;26.33;11.97;;;0.20;99.90;;;;;;4953459;29;20186;-50
2022/03/01 05:01:57;;;;;;;27.97;11.43;;;0.20;99.90;;;;;;4943992;29;20252;-52
2022/03/01 05:04:23;;;;;;;24.20;11.43;;;0.20;99.90;;;;;;4952884;29;20696;-51
2022/03/01 05:06:48;;;;;;;27.53;10.70;;;0.20;99.90;;;;;;4953499;29;20182;-51
2022/03/01 05:09:14;;;;;;;23.67;11.70;;;0.20;99.90;;;;;;4953536;28;20185;-51
2022/03/01 05:11:39;;;;;;;26.90;11.70;;;0.10;99.90;;;;;;4936172;29;20204;-51
2022/03/01 05:14:05;;;;;;;25.33;10.93;;;0.10;99.90;;;;;;4953119;29;20205;-51
2022/03/01 05:16:31;;;;;;;25.57;11.10;;;0.10;99.90;;;;;;4953690;29;20204;-51
2022/03/01 05:18:56;;;;;;;24.27;11.67;;;0.00;99.90;;;;;;4953073;29;20229;-51
2022/03/01 05:21:22;;;;;;;27.10;12.40;;;0.00;99.90;;;;;;4952315;29;20210;-48
2022/03/01 05:23:47;;;;;;;35.90;13.40;;;-0.10;99.90;;;;;;4953227;29;20710;-51
2022/03/01 05:26:14;;;;;;;27.33;12.13;;;-0.10;99.90;;;;;;4953336;29;20249;-51
2022/03/01 05:28:39;;;;;;;32.83;12.60;;;-0.10;99.90;;;;;;4953414;29;20190;-51
2022/03/01 05:31:05;;;;;;;27.83;12.93;;;-0.10;99.90;;;;;;4953324;29;20436;-51
2022/03/01 05:33:31;;;;;;;26.53;11.67;;;-0.20;99.90;;;;;;4953340;29;20202;-52
2022/03/01 05:35:57;;;;;;;24.60;10.83;;;-0.10;99.90;;;;;;4952676;28;20490;-51
2022/03/01 05:38:22;;;;;;;27.20;11.20;;;-0.10;99.90;;;;;;4957256;28;20240;-51
2022/03/01 05:40:48;;;;;;;23.10;10.90;;;-0.10;99.90;;;;;;4953049;29;20182;-51
2022/03/01 05:43:13;;;;;;;29.70;11.53;;;-0.20;99.90;;;;;;4953311;29;20186;-51
2022/03/01 05:45:40;;;;;;;24.67;11.30;;;-0.20;99.90;;;;;;4952802;29;20213;-52
2022/03/01 05:48:06;;;;;;;26.10;13.00;;;-0.30;99.90;;;;;;4952578;29;20278;-51
2022/03/01 05:50:31;;;;;;;24.97;11.63;;;-0.30;99.90;;;;;;4952892;29;20512;-51
2022/03/01 05:52:58;;;;;;;28.93;12.90;;;-0.30;99.90;;;;;;4952742;28;20774;-51
2022/03/01 05:55:24;;;;;;;34.60;12.03;;;-0.30;99.90;;;;;;4952802;29;20173;-52
2022/03/01 05:57:49;;;;;;;26.27;12.20;;;-0.30;99.90;;;;;;4952927;29;20428;-52
2022/03/01 06:00:19;;;;;;;25.23;12.10;;;-0.30;99.90;;;;;;4952397;29;20551;-49
2022/03/01 06:02:47;;;;;;;32.13;12.30;;;-0.30;99.90;;;;;;4952822;29;20623;-52
2022/03/01 06:05:12;;;;;;;27.80;12.97;;;-0.30;99.90;;;;;;4952365;29;20433;-51
2022/03/01 06:07:38;;;;;;;31.43;12.90;;;-0.20;99.90;;;;;;4952177;29;21073;-51
2022/03/01 06:10:05;;;;;;;28.00;12.70;;;-0.20;99.90;;;;;;4952456;29;20273;-51
2022/03/01 06:12:31;;;;;;;25.90;12.87;;;-0.30;99.90;;;;;;4951032;29;20473;-51
2022/03/01 06:14:56;;;;;;;27.00;13.03;;;-0.30;99.90;;;;;;4951966;29;20469;-52
2022/03/01 06:17:22;;;;;;;24.73;11.60;;;-0.30;99.90;;;;;;4950995;29;20201;-51
2022/03/01 06:19:47;;;;;;;28.03;12.97;;;-0.30;99.90;;;;;;4952052;29;20272;-51
2022/03/01 06:22:13;;;;;;;22.17;11.10;;;-0.30;99.90;;;;;;4952349;29;20258;-50
2022/03/01 06:24:40;;;;;;;25.53;12.13;;;-0.30;99.90;;;;;;4951296;28;20209;-51
2022/03/01 06:27:06;;;;;;;26.93;12.10;;;-0.30;99.90;;;;;;4952144;29;20189;-52
2022/03/01 06:29:32;;;;;;;33.70;13.57;;;-0.30;99.90;;;;;;4952328;29;20500;-48
2022/03/01 06:31:58;;;;;;;26.87;12.23;;;-0.20;99.90;;;;;;4952362;29;20182;-52
2022/03/01 06:34:23;;;;;;;34.30;13.70;;;-0.20;99.90;;;;;;4951820;29;20938;-51
2022/03/01 06:36:49;;;;;;;25.20;11.73;;;-0.10;99.90;;;;;;4951709;28;20747;-51
2022/03/01 06:39:14;;;;;;;29.23;12.90;;;-0.20;99.90;;;;;;4951991;29;20180;-51
2022/03/01 06:41:40;;;;;;;27.73;11.50;;;-0.10;99.90;;;;;;4952183;29;20178;-51
2022/03/01 06:44:05;;;;;;;28.17;12.23;;;-0.10;99.90;;;;;;4952066;29;20198;-51
2022/03/01 06:46:31;;;;;;;37.90;13.17;;;0.00;99.90;;;;;;4951716;29;20723;-48
2022/03/01 06:48:57;;;;;;;25.97;12.83;;;0.00;99.90;;;;;;4952373;29;20265;-52
2022/03/01 06:51:23;;;;;;;30.13;12.60;;;0.00;99.90;;;;;;4951927;29;20264;-52
2022/03/01 06:53:48;;;;;;;26.60;13.20;;;0.00;99.90;;;;;;4951305;29;20217;-52
2022/03/01 06:56:14;;;;;;;30.37;12.93;;;0.10;99.90;;;;;;4956132;28;20435;-52
2022/03/01 06:58:39;;;;;;;33.20;13.77;;;0.20;99.90;;;;;;4951309;29;20201;-51
2022/03/01 07:01:05;;;;;;;29.17;12.87;;;0.30;99.90;;;;;;4950555;29;20596;-51
2022/03/01 07:03:31;;;;;;;30.67;12.90;;;0.40;99.90;;;;;;4950021;29;20189;-51
2022/03/01 07:05:57;;;;;;;30.27;12.57;;;0.50;99.90;;;;;;4947585;29;20430;-51
2022/03/01 07:08:24;;;;;;;35.93;13.70;;;0.50;99.90;;;;;;4950980;29;20182;-51
2022/03/01 07:10:50;;;;;;;27.20;13.50;;;0.60;99.90;;;;;;4933343;29;20190;-49
2022/03/01 07:13:16;;;;;;;26.73;11.57;;;0.60;99.90;;;;;;4951104;29;20469;-52
2022/03/01 07:15:41;;;;;;;27.40;13.50;;;0.70;99.90;;;;;;4950485;29;20456;-51
2022/03/01 07:18:07;;;;;;;28.03;12.63;;;0.70;99.90;;;;;;4950147;29;20186;-51
2022/03/01 07:20:34;;;;;;;29.20;11.77;;;0.70;99.90;;;;;;4951075;29;20182;-51
2022/03/01 07:23:00;;;;;;;23.63;11.10;;;0.70;99.90;;;;;;4950104;29;20449;-51
2022/03/01 07:25:26;;;;;;;26.10;11.93;;;0.80;99.90;;;;;;4950914;29;20441;-52
2022/03/01 07:27:53;;;;;;;27.70;12.90;;;0.80;99.90;;;;;;4950410;29;20232;-51
2022/03/01 07:30:20;;;;;;;33.30;13.40;;;1.00;99.90;;;;;;4950907;29;20608;-51
2022/03/01 07:32:46;;;;;;;26.63;12.10;;;1.20;99.90;;;;;;4950639;29;20457;-50
2022/03/01 07:35:12;;;;;;;27.60;12.73;;;1.10;99.90;;;;;;4951977;28;20465;-48
2022/03/01 07:37:37;;;;;;;25.87;12.57;;;1.00;99.90;;;;;;4967486;28;20547;-50
2022/03/01 07:40:08;;;;;;;27.40;12.97;;;1.10;99.90;;;;;;4972323;28;20196;-49
2022/03/01 07:42:33;;;;;;;24.40;12.30;;;1.10;99.90;;;;;;4970233;28;20185;-51
2022/03/01 07:44:59;;;;;;;30.43;14.77;;;0.90;99.90;;;;;;4971838;28;20944;-51
2022/03/01 07:47:24;;;;;;;27.40;12.27;;;0.90;99.90;;;;;;4971646;28;20173;-51
2022/03/01 07:49:50;;;;;;;37.77;13.20;;;0.90;99.90;;;;;;4956202;28;20197;-51
2022/03/01 07:52:15;;;;;;;26.20;12.80;;;1.10;99.90;;;;;;4972488;28;20216;-50
2022/03/01 07:54:41;;;;;;;27.30;12.43;;;1.50;99.90;;;;;;4973003;28;20199;-51
2022/03/01 07:57:06;;;;;;;35.70;13.80;;;1.70;99.90;;;;;;4972897;28;20204;-50
2022/03/01 07:59:32;;;;;;;26.47;13.27;;;1.90;99.90;;;;;;4973156;28;20236;-51
2022/03/01 08:01:58;;;;;;;30.90;12.50;;;2.30;99.90;;;;;;4955531;28;20181;-51
2022/03/01 08:04:23;;;;;;;25.20;12.73;;;3.40;99.90;;;;;;4971523;28;20224;-50
2022/03/01 08:06:49;;;;;;;28.80;13.30;;;4.20;99.90;;;;;;4973872;28;20430;-51
2022/03/01 08:09:15;;;;;;;26.33;13.17;;;5.10;99.90;;;;;;4976353;28;20185;-50
2022/03/01 08:11:40;;;;;;;23.80;12.47;;;5.80;99.90;;;;;;4985613;28;20977;-51
2022/03/01 08:14:06;;;;;;;29.70;14.30;;;6.60;99.90;;;;;;4972325;28;20954;-50
2022/03/01 08:16:32;;;;;;;24.00;13.20;;;7.00;99.90;;;;;;4970935;28;20923;-51
2022/03/01 08:18:57;;;;;;;27.03;13.30;;;7.30;99.90;;;;;;4954736;28;20192;-50
2022/03/01 08:21:23;;;;;;;25.03;12.90;;;7.60;99.90;;;;;;4954032;28;20202;-51
2022/03/01 08:23:48;;;;;;;23.40;12.97;;;7.40;99.90;;;;;;4972589;28;20261;-50
2022/03/01 08:26:14;;;;;;;28.17;12.10;;;7.50;99.90;;;;;;4972208;28;20193;-50
2022/03/01 08:28:40;;;;;;;25.40;12.73;;;7.40;99.90;;;;;;4973291;28;20642;-50
2022/03/01 08:31:06;;;;;;;26.53;13.03;;;6.90;99.90;;;;;;4972773;28;20245;-50
2022/03/01 08:33:33;;;;;;;26.23;13.20;;;5.80;99.90;;;;;;4973153;28;20471;-50
2022/03/01 08:35:58;;;;;;;28.50;13.00;;;5.00;99.90;;;;;;4968985;28;20484;-49
2022/03/01 08:38:25;;;;;;;30.73;13.70;;;4.40;99.90;;;;;;4953215;28;21169;-50
2022/03/01 08:40:51;;;;;;;30.60;13.50;;;4.20;99.90;;;;;;4953836;29;20538;-50
2022/03/01 08:43:16;;;;;;;24.53;13.10;;;4.10;99.90;;;;;;4952003;29;20425;-49
2022/03/01 08:45:42;;;;;;;25.57;13.57;;;4.30;99.90;;;;;;4954032;29;20189;-50
2022/03/01 08:48:08;;;;;;;25.53;13.70;;;4.30;99.90;;;;;;4953205;28;20182;-50
2022/03/01 08:50:34;;;;;;;25.20;13.57;;;4.20;99.90;;;;;;4956573;28;20189;-50
2022/03/01 08:53:01;;;;;;;29.57;14.10;;;4.00;99.90;;;;;;4957792;28;20610;-50
2022/03/01 08:55:27;;;;;;;27.93;13.73;;;3.90;99.90;;;;;;4951761;28;20433;-50
2022/03/01 08:57:53;;;;;;;28.47;13.33;;;3.70;99.90;;;;;;4953588;28;20456;-50
2022/03/01 09:00:18;;;;;;;25.03;13.70;;;3.80;99.90;;;;;;4952638;29;20177;-50
2022/03/01 09:02:44;;;;;;;27.43;12.87;;;4.20;99.90;;;;;;4952843;29;20643;-49
2022/03/01 09:05:10;;;;;;;27.90;12.90;;;4.70;99.90;;;;;;4952850;29;20186;-50
2022/03/01 09:07:37;;;;;;;26.50;13.27;;;5.20;99.90;;;;;;4953138;29;20789;-49
2022/03/01 09:10:04;;;;;;;27.03;13.60;;;5.20;99.90;;;;;;4953006;29;20534;-50
2022/03/01 09:12:30;;;;;;;28.13;13.87;;;5.30;99.90;;;;;;4952058;29;20540;-48
2022/03/01 09:14:55;;;;;;;28.57;13.70;;;5.50;99.90;;;;;;4952966;29;20553;-50
2022/03/01 09:17:21;;;;;;;25.70;12.77;;;5.50;99.90;;;;;;4950855;29;20197;-50
2022/03/01 09:19:47;;;;;;;30.20;14.10;;;5.60;99.90;;;;;;4951843;29;20391;-50
2022/03/01 09:22:13;;;;;;;25.47;13.73;;;5.70;99.90;;;;;;4951874;29;20204;-50
2022/03/01 09:24:39;;;;;;;30.13;12.90;;;5.90;99.90;;;;;;4934722;29;20200;-50
2022/03/01 09:27:05;;;;;;;25.27;12.77;;;5.80;99.90;;;;;;4951173;29;20421;-50
2022/03/01 09:29:31;;;;;;;29.30;13.40;;;5.70;99.90;;;;;;4952262;29;20429;-51
2022/03/01 09:31:57;;;;;;;29.25;14.00;;;5.60;99.90;;;;;;4951383;29;20766;-50
2022/03/01 09:34:23;;;;;;;26.43;13.90;;;5.40;99.90;;;;;;4952872;28;20201;-50
2022/03/01 09:36:49;;;;;;;34.10;15.70;;;5.40;99.90;;;;;;4954137;28;20221;-51
2022/03/01 09:39:14;;;;;;;25.70;12.90;;;5.30;99.90;;;;;;4952653;29;20428;-50
2022/03/01 09:41:40;;;;;;;26.60;13.30;;;5.50;99.90;;;;;;4951302;29;20307;-47
2022/03/01 09:44:06;;;;;;;32.93;12.87;;;5.50;99.90;;;;;;4949138;28;20190;-50
2022/03/01 09:46:33;;;;;;;29.43;13.50;;;5.60;99.90;;;;;;4947367;29;20205;-50
2022/03/01 09:48:59;;;;;;;37.93;14.30;;;5.70;99.90;;;;;;4939577;29;20486;-52
2022/03/01 09:51:26;;;;;;;26.83;14.00;;;5.50;99.90;;;;;;4950675;29;20438;-50
2022/03/01 09:53:53;;;;;;;24.23;13.30;;;5.40;99.90;;;;;;4942424;28;20468;-50
2022/03/01 09:56:19;;;;;;;31.43;14.57;;;5.30;99.90;;;;;;4952550;29;20472;-49
2022/03/01 09:58:49;;;;;;;26.00;13.50;;;5.30;99.90;;;;;;4949725;28;20433;-50
2022/03/01 10:01:16;;;;;;;27.87;14.50;;;5.50;99.90;;;;;;4942997;29;20484;-50
2022/03/01 10:03:48;;;;;;;26.67;14.20;;;5.60;99.90;;;;;;4947811;29;20428;-50
2022/03/01 10:06:14;;;;;;;30.63;14.47;;;5.80;99.90;;;;;;4949956;29;20819;-50
2022/03/01 10:08:40;;;;;;;26.90;13.07;;;5.80;99.90;;;;;;4944798;29;20521;-50
2022/03/01 10:11:07;;;;;;;32.17;13.53;;;5.80;99.90;;;;;;4943031;29;20432;-51
2022/03/01 10:13:35;;;;;;;25.30;13.80;;;5.90;99.90;;;;;;4951044;29;20604;-50
2022/03/01 10:16:06;;;;;;;29.60;13.60;;;6.10;99.90;;;;;;4935530;29;20426;-50
2022/03/01 10:18:34;;;;;;;25.17;13.50;;;6.60;99.90;;;;;;4943895;28;20830;-51
2022/03/01 10:21:10;;;;;;;26.10;13.30;;;7.10;99.90;;;;;;4923431;29;20445;-51
2022/03/01 10:23:38;;;;;;;29.10;14.00;;;7.60;99.90;;;;;;4950446;29;20495;-50
2022/03/01 10:26:15;;;;;;;26.13;13.83;;;8.00;99.90;;;;;;4941455;29;20437;-50
2022/03/01 10:28:41;;;;;;;30.33;15.30;;;8.40;99.90;;;;;;4948161;29;20438;-48
2022/03/01 10:31:10;;;;;;;23.90;13.93;;;8.60;99.90;;;;;;4943347;29;20773;-51
2022/03/01 10:33:38;;;;;;;24.07;13.43;;;8.70;99.90;;;;;;4946294;29;20473;-51
2022/03/01 10:36:04;;;;;;;30.40;13.97;;;8.70;99.90;;;;;;4945675;28;20450;-50
2022/03/01 10:38:29;;;;;;;26.00;13.87;;;8.60;99.90;;;;;;4952203;29;20436;-50
2022/03/01 10:40:59;;;;;;;25.03;13.77;;;8.70;99.90;;;;;;4951953;29;20185;-50
2022/03/01 10:43:26;;;;;;;28.33;15.20;;;8.20;99.90;;;;;;4950405;29;20182;-50
2022/03/01 10:45:52;;;;;;;28.20;13.67;;;7.80;99.90;;;;;;4953618;28;20436;-49
2022/03/01 10:48:26;;;;;;;30.67;14.50;;;7.70;99.90;;;;;;4952040;29;20451;-50
2022/03/01 10:51:10;;;;;;;26.57;13.40;;;7.90;99.90;;;;;;4950680;28;20184;-50
2022/03/01 10:53:39;;;;;;;34.43;16.97;;;8.40;99.90;;;;;;4926312;29;20472;-50
2022/03/01 10:56:11;;;;;;;31.87;17.40;;;8.50;99.90;;;;;;4951167;29;20433;-49
2022/03/01 10:58:38;;;;;;;31.20;15.37;;;8.40;99.90;;;;;;4942046;29;20450;-49
2022/03/01 11:01:06;;;;;;;25.47;13.53;;;8.60;99.90;;;;;;4939664;29;20508;-50
2022/03/01 11:03:31;;;;;;;25.85;14.80;;;9.10;99.90;;;;;;4947591;29;20486;-50
2022/03/01 11:05:59;;;;;;;26.20;15.10;;;10.20;99.90;;;;;;4945279;29;20571;-51
2022/03/01 11:08:35;;;;;;;26.80;14.00;;;12.30;99.90;;;;;;4948972;29;20637;-51
2022/03/01 11:11:03;;;;;;;27.27;14.80;;;14.10;99.90;;;;;;4942524;28;20465;-51
2022/03/01 11:13:33;;;;;;;27.10;15.00;;;14.30;99.90;;;;;;4945535;29;20836;-50
2022/03/01 11:16:18;;;;;;;27.43;14.27;;;13.50;99.90;;;;;;4921804;29;20436;-50
2022/03/01 11:19:03;;;;;;;25.33;14.37;;;12.90;99.90;;;;;;4951411;29;20553;-50
2022/03/01 11:21:31;;;;;;;26.57;13.97;;;12.20;99.90;;;;;;4951187;28;20437;-50
2022/03/01 11:23:57;;;;;;;25.50;14.37;;;11.70;99.90;;;;;;4951033;29;20437;-51
2022/03/01 11:26:22;;;;;;;28.80;16.53;;;11.40;99.90;;;;;;4951370;29;20480;-48
2022/03/01 11:28:53;;;;;;;28.63;15.27;;;11.20;99.90;;;;;;4951025;29;20437;-50
2022/03/01 11:31:25;;;;;;;29.00;15.83;;;11.20;99.90;;;;;;4951309;29;20272;-50
2022/03/01 11:34:07;;;;;;;23.87;13.50;;;10.90;99.90;;;;;;4946136;29;20477;-51
2022/03/01 11:36:33;;;;;;;25.67;14.57;;;10.60;99.90;;;;;;4938727;29;20469;-50
2022/03/01 11:39:15;;;;;;;25.83;14.63;;;10.60;99.90;;;;;;4951470;29;20429;-50
2022/03/01 11:41:46;;;;;;;27.17;14.90;;;10.80;99.90;;;;;;4945995;29;20533;-51
2022/03/01 11:44:16;;;;;;;25.47;14.83;;;10.70;99.90;;;;;;4946979;29;20432;-52
2022/03/01 11:46:44;;;;;;;27.50;15.03;;;10.90;99.90;;;;;;4950464;29;20517;-51
2022/03/01 11:49:12;;;;;;;23.83;14.00;;;11.10;99.90;;;;;;4951240;29;20459;-52
2022/03/01 11:51:40;;;;;;;27.00;14.43;;;11.40;99.90;;;;;;4950272;29;20193;-51
2022/03/01 11:54:31;;;;;;;27.77;14.67;;;12.00;99.90;;;;;;4950480;29;20472;-51
2022/03/01 11:56:58;;;;;;;24.00;13.90;;;12.30;99.90;;;;;;4946991;29;20437;-50
2022/03/01 11:59:24;;;;;;;24.07;13.77;;;12.50;99.90;;;;;;4950163;29;20444;-51
2022/03/01 12:01:52;;;;;;;35.40;14.00;;;12.80;99.90;;;;;;4950614;28;20447;-51
2022/03/01 12:04:26;;;;;;;25.90;14.17;;;12.60;99.90;;;;;;4950395;29;20584;-51
2022/03/01 12:06:54;;;;;;;29.23;14.20;;;12.40;99.90;;;;;;4950143;29;20475;-51
2022/03/01 12:09:23;;;;;;;29.50;14.00;;;12.00;99.90;;;;;;4950063;29;20437;-51
2022/03/01 12:11:49;;;;;;;25.60;14.30;;;11.80;99.90;;;;;;4951291;29;20499;-51
2022/03/01 12:14:19;;;;;;;26.07;14.53;;;11.60;99.90;;;;;;4950900;29;20461;-51
2022/03/01 12:16:46;;;;;;;26.07;14.90;;;11.40;99.90;;;;;;4950010;29;20755;-51
2022/03/01 12:19:20;;;;;;;28.97;13.93;;;10.70;99.90;;;;;;4949025;29;20540;-50
2022/03/01 12:21:54;;;;;;;27.30;14.80;;;10.50;99.90;;;;;;4950696;28;20445;-51
2022/03/01 12:24:24;;;;;;;28.03;14.77;;;10.20;99.90;;;;;;4954147;29;20434;-51
2022/03/01 12:26:55;;;;;;;27.30;13.53;;;9.80;99.90;;;;;;4954121;29;20445;-51
2022/03/01 12:29:23;;;;;;;27.03;14.00;;;9.50;99.90;;;;;;4955938;28;20456;-50
2022/03/01 12:32:10;;;;;;;24.53;14.17;;;9.20;99.90;;;;;;4953925;29;20456;-51
2022/03/01 12:34:38;;;;;;;29.17;14.60;;;8.90;99.90;;;;;;4953424;29;20479;-53